Terminal Aerodrome Forecast
Issued by NWS

Home | Current Version | Previous Version | Text Only | Print | Product List | Glossary On
Versions: 1 2 3 4 5 6 7 8 9 10 11 12 13 14 15 16 17 18
241
FTUS43 KSGF 291720
TAFJLN
TAF
KJLN 291720Z 2918/3018 28004KT P6SM SCT020 BKN100
     FM300000 31005KT P6SM SCT150
     FM301000 09004KT P6SM BKN130 PROB30 3010/3011 4SM -TSRA
      OVC040CB
     FM301400 17004KT P6SM OVC090=

USA.gov is the U.S. government's official web portal to all federal, state and local government web resources and services.